^^
Saratoga-Weather Station Historical Data
Daily Summary for August 1, 2020 Units:  Metric    English   Both
Daily Weekly Monthly Yearly Custom
  High: Low: Average:
Temperature: 24.7 °C 12.9 °C 19.5 °C
Dew Point: 17.9 °C 11.8 °C 15.3 °C
Humidity: 95% 64% 78%
Wind Speed: 14.3km/h km/h 3.3km/h
Wind Gust: 24.1km/h - -
Wind- - WSW
Pressure: 1010.5 hPa 1007.8 hPa -
Precipitation: 0.0 mm    
Historical Graphs
 
 
Tabular Data for August 1, 2020
Time Temperature Dew Point Pressure Wind Wind Speed Wind Gust Humidity Rainfall Rate (Hourly) solar
00:04 16.7 °C 13.4 °C 1010.5 hPa ESE 1.4 km/h 3.2 km/h 81% 0.0 mm 0 W/m2
00:09 16.7 °C 13.4 °C 1010.5 hPa ESE 1.4 km/h 3.2 km/h 81% 0.0 mm 0 W/m2
00:14 16.6 °C 13.3 °C 1010.5 hPa East 1.4 km/h 1.6 km/h 81% 0.0 mm 0 W/m2
00:19 16.6 °C 13.5 °C 1010.2 hPa East 3.2 km/h 3.2 km/h 82% 0.0 mm 0 W/m2
00:24 16.6 °C 13.3 °C 1010.2 hPa East 1.4 km/h 1.6 km/h 81% 0.0 mm 0 W/m2
00:29 16.6 °C 13.3 °C 1010.2 hPa Calm   1.6 km/h 81% 0.0 mm 0 W/m2
00:34 16.5 °C 13.2 °C 1010.2 hPa Calm     81% 0.0 mm 0 W/m2
00:39 16.4 °C 13.3 °C 1010.2 hPa Calm   1.6 km/h 82% 0.0 mm 0 W/m2
00:44 16.2 °C 13.1 °C 1010.2 hPa Calm     82% 0.0 mm 0 W/m2
00:49 16.1 °C 13.2 °C 1010.2 hPa Calm   1.6 km/h 83% 0.0 mm 0 W/m2
00:54 15.9 °C 13 °C 1010.2 hPa Calm   3.2 km/h 83% 0.0 mm 0 W/m2
00:59 15.7 °C 13 °C 1010.2 hPa Calm     84% 0.0 mm 0 W/m2
01:04 15.6 °C 13.1 °C 1010.2 hPa Calm   1.6 km/h 85% 0.0 mm 0 W/m2
01:09 15.4 °C 12.9 °C 1010.2 hPa Calm     85% 0.0 mm 0 W/m2
01:14 15.3 °C 13 °C 1010.2 hPa Calm     86% 0.0 mm 0 W/m2
01:19 15.2 °C 12.9 °C 1010.2 hPa Calm   1.6 km/h 86% 0.0 mm 0 W/m2
01:24 15.2 °C 12.9 °C 1010.2 hPa Calm     86% 0.0 mm 0 W/m2
01:29 15.1 °C 13 °C 1010.2 hPa Calm   1.6 km/h 87% 0.0 mm 0 W/m2
01:34 15 °C 12.9 °C 1010.2 hPa Calm     87% 0.0 mm 0 W/m2
01:39 14.9 °C 12.8 °C 1010.2 hPa Calm     87% 0.0 mm 0 W/m2
01:44 14.8 °C 12.8 °C 1010.2 hPa Calm     88% 0.0 mm 0 W/m2
01:49 14.7 °C 12.7 °C 1010.2 hPa Calm     88% 0.0 mm 0 W/m2
01:54 14.6 °C 12.8 °C 1010.2 hPa Calm   1.6 km/h 89% 0.0 mm 0 W/m2
01:59 14.6 °C 12.8 °C 1010.2 hPa Calm   1.6 km/h 89% 0.0 mm 0 W/m2
02:04 14.6 °C 12.8 °C 1010.2 hPa Calm     89% 0.0 mm 0 W/m2
02:09 14.6 °C 12.8 °C 1010.2 hPa Calm   1.6 km/h 89% 0.0 mm 0 W/m2
02:15 14.6 °C 12.8 °C 1010.2 hPa SW 1.4 km/h 3.2 km/h 89% 0.0 mm 0 W/m2
02:20 14.6 °C 13 °C 1010.2 hPa Calm   3.2 km/h 90% 0.0 mm 0 W/m2
02:25 14.7 °C 13.1 °C 1010.2 hPa SSE 3.2 km/h 3.2 km/h 90% 0.0 mm 0 W/m2
02:30 14.8 °C 13 °C 1010.2 hPa Calm   3.2 km/h 89% 0.0 mm 0 W/m2
02:35 14.9 °C 13.1 °C 1009.8 hPa Calm   3.2 km/h 89% 0.0 mm 0 W/m2
02:40 15 °C 13 °C 1010.2 hPa ESE 1.4 km/h 3.2 km/h 88% 0.0 mm 0 W/m2
02:45 15.1 °C 13.1 °C 1010.2 hPa ESE 3.2 km/h 6.4 km/h 88% 0.0 mm 0 W/m2
02:50 15.1 °C 13.1 °C 1009.8 hPa Calm   1.6 km/h 88% 0.0 mm 0 W/m2
02:55 15.1 °C 13.1 °C 1009.8 hPa ESE 1.4 km/h 4.8 km/h 88% 0.0 mm 0 W/m2
03:00 15.1 °C 13.1 °C 1009.8 hPa Calm   1.6 km/h 88% 0.0 mm 0 W/m2
03:05 15.1 °C 13.1 °C 1009.8 hPa Calm   1.6 km/h 88% 0.0 mm 0 W/m2
03:10 15 °C 13 °C 1009.8 hPa ESE 3.2 km/h 3.2 km/h 88% 0.0 mm 0 W/m2
03:16 14.9 °C 12.9 °C 1009.5 hPa Calm     88% 0.0 mm 0 W/m2
03:21 14.8 °C 12.8 °C 1009.5 hPa Calm     88% 0.0 mm 0 W/m2
03:26 14.7 °C 12.7 °C 1009.5 hPa Calm     88% 0.0 mm 0 W/m2
03:31 14.6 °C 12.8 °C 1009.5 hPa Calm     89% 0.0 mm 0 W/m2
03:36 14.4 °C 12.6 °C 1009.5 hPa Calm     89% 0.0 mm 0 W/m2
03:41 14.3 °C 12.7 °C 1009.5 hPa Calm     90% 0.0 mm 0 W/m2
03:46 14.2 °C 12.6 °C 1009.5 hPa Calm     90% 0.0 mm 0 W/m2
03:51 14.1 °C 12.5 °C 1009.5 hPa Calm     90% 0.0 mm 0 W/m2
03:56 13.9 °C 12.5 °C 1009.5 hPa Calm     91% 0.0 mm 0 W/m2
04:01 13.9 °C 12.5 °C 1009.5 hPa Calm     91% 0.0 mm 0 W/m2
04:06 13.8 °C 12.4 °C 1009.5 hPa Calm     91% 0.0 mm 0 W/m2
04:11 13.7 °C 12.3 °C 1009.5 hPa Calm     91% 0.0 mm 0 W/m2
04:16 13.7 °C 12.4 °C 1009.5 hPa Calm     92% 0.0 mm 0 W/m2
04:21 13.7 °C 12.4 °C 1009.5 hPa Calm     92% 0.0 mm 0 W/m2
04:26 13.6 °C 12.3 °C 1009.5 hPa ESE 3.2 km/h 3.2 km/h 92% 0.0 mm 0 W/m2
04:31 13.6 °C 12.3 °C 1009.5 hPa Calm     92% 0.0 mm 0 W/m2
04:36 13.5 °C 12.2 °C 1009.5 hPa Calm     92% 0.0 mm 0 W/m2
04:41 13.4 °C 12.1 °C 1009.5 hPa Calm     92% 0.0 mm 0 W/m2
04:46 13.4 °C 12.1 °C 1009.1 hPa Calm     92% 0.0 mm 0 W/m2
04:51 13.4 °C 12.1 °C 1009.1 hPa Calm     92% 0.0 mm 0 W/m2
04:56 13.3 °C 12.2 °C 1009.1 hPa Calm     93% 0.0 mm 0 W/m2
05:01 13.3 °C 12.2 °C 1009.1 hPa Calm     93% 0.0 mm 0 W/m2
05:06 13.2 °C 12.1 °C 1009.1 hPa Calm     93% 0.0 mm 0 W/m2
05:11 13.2 °C 12.1 °C 1009.1 hPa Calm     93% 0.0 mm 0 W/m2
05:16 13.1 °C 12 °C 1009.1 hPa Calm     93% 0.0 mm 0 W/m2
05:21 13.1 °C 12 °C 1009.1 hPa Calm     93% 0.0 mm 0 W/m2
05:26 13.1 °C 12 °C 1009.1 hPa Calm     93% 0.0 mm 0 W/m2
05:31 13 °C 11.9 °C 1009.1 hPa Calm     93% 0.0 mm 0 W/m2
05:36 12.9 °C 11.8 °C 1009.1 hPa Calm   1.6 km/h 93% 0.0 mm 0 W/m2
05:41 12.9 °C 12 °C 1009.1 hPa Calm     94% 0.0 mm 5 W/m2
05:46 12.9 °C 12 °C 1009.1 hPa Calm     94% 0.0 mm 7 W/m2
05:52 12.9 °C 12 °C 1009.1 hPa Calm     94% 0.0 mm 9 W/m2
05:57 12.9 °C 12 °C 1009.1 hPa Calm     94% 0.0 mm 11 W/m2
06:02 13 °C 12.1 °C 1009.1 hPa Calm     94% 0.0 mm 12 W/m2
06:07 13 °C 12.1 °C 1009.1 hPa Calm     94% 0.0 mm 14 W/m2
06:12 13.1 °C 12.2 °C 1009.1 hPa Calm     94% 0.0 mm 16 W/m2
06:17 13.1 °C 12.2 °C 1009.1 hPa ESE 1.4 km/h 1.6 km/h 94% 0.0 mm 16 W/m2
06:22 13.2 °C 12.4 °C 1009.1 hPa ESE 3.2 km/h 4.8 km/h 95% 0.0 mm 18 W/m2
06:27 13.4 °C 12.6 °C 1009.1 hPa ESE 3.2 km/h 3.2 km/h 95% 0.0 mm 19 W/m2
06:32 13.6 °C 12.8 °C 1009.1 hPa Calm   4.8 km/h 95% 0.0 mm 21 W/m2
06:37 13.9 °C 13.1 °C 1009.1 hPa Calm   4.8 km/h 95% 0.0 mm 21 W/m2
06:42 14.1 °C 13.1 °C 1009.1 hPa ENE 1.4 km/h 3.2 km/h 94% 0.0 mm 23 W/m2
06:47 14.6 °C 13.6 °C 1009.1 hPa North 3.2 km/h 4.8 km/h 94% 0.0 mm 23 W/m2
06:52 14.9 °C 13.8 °C 1009.1 hPa Calm   3.2 km/h 93% 0.0 mm 25 W/m2
06:57 15.2 °C 13.9 °C 1009.1 hPa SW 3.2 km/h 3.2 km/h 92% 0.0 mm 25 W/m2
07:02 15.4 °C 13.9 °C 1009.1 hPa NE 3.2 km/h 4.8 km/h 91% 0.0 mm 26 W/m2
07:07 15.7 °C 14.1 °C 1009.1 hPa ENE 3.2 km/h 9.7 km/h 90% 0.0 mm 26 W/m2
07:12 15.8 °C 14 °C 1009.1 hPa ENE 3.2 km/h 3.2 km/h 89% 0.0 mm 28 W/m2
07:17 15.9 °C 13.9 °C 1009.1 hPa ENE 3.2 km/h 6.4 km/h 88% 0.0 mm 28 W/m2
07:22 16.1 °C 14.1 °C 1009.1 hPa Calm   6.4 km/h 88% 0.0 mm 30 W/m2
07:32 16.4 °C 14.2 °C 1009.1 hPa NE 1.4 km/h 4.8 km/h 87% 0.0 mm 32 W/m2
07:37 16.6 °C 14.2 °C 1009.1 hPa Calm   4.8 km/h 86% 0.0 mm 32 W/m2
07:42 16.7 °C 14.3 °C 1009.1 hPa NW 1.4 km/h 1.6 km/h 86% 0.0 mm 33 W/m2
07:47 16.8 °C 14.4 °C 1009.1 hPa East 3.2 km/h 6.4 km/h 86% 0.0 mm 204 W/m2
07:52 16.9 °C 14.5 °C 1009.5 hPa ESE 1.4 km/h 3.2 km/h 86% 0.0 mm 218 W/m2
07:57 17.2 °C 14.7 °C 1009.1 hPa North 3.2 km/h 6.4 km/h 85% 0.0 mm 239 W/m2
08:02 17.4 °C 14.7 °C 1009.1 hPa WNW 6.4 km/h 11.3 km/h 84% 0.0 mm 72 W/m2
08:07 17.5 °C 14.8 °C 1009.1 hPa WNW 3.2 km/h 6.4 km/h 84% 0.0 mm 111 W/m2
08:12 17.6 °C 14.9 °C 1009.5 hPa WNW 4.7 km/h 9.7 km/h 84% 0.0 mm 67 W/m2
08:17 17.6 °C 14.9 °C 1009.5 hPa Calm   11.3 km/h 84% 0.0 mm 114 W/m2
08:22 17.8 °C 15.1 °C 1009.5 hPa NW 3.2 km/h 4.8 km/h 84% 0.0 mm 65 W/m2
08:27 18.1 °C 15.2 °C 1009.5 hPa WNW 4.7 km/h 17.7 km/h 83% 0.0 mm 62 W/m2
08:32 18.2 °C 15.1 °C 1009.1 hPa WSW 4.7 km/h 9.7 km/h 82% 0.0 mm 60 W/m2
08:37 18.3 °C 15.2 °C 1009.1 hPa West 3.2 km/h 17.7 km/h 82% 0.0 mm 84 W/m2
08:42 18.4 °C 15.3 °C 1009.1 hPa NNE 3.2 km/h 12.9 km/h 82% 0.0 mm 121 W/m2
08:47 18.4 °C 15.3 °C 1009.1 hPa WNW 3.2 km/h 6.4 km/h 82% 0.0 mm 171 W/m2
08:52 18.5 °C 15.4 °C 1009.1 hPa WNW 1.4 km/h 12.9 km/h 82% 0.0 mm 188 W/m2
08:57 18.6 °C 15.5 °C 1009.1 hPa NNW 4.7 km/h 4.8 km/h 82% 0.0 mm 213 W/m2
09:02 18.6 °C 15.5 °C 1009.5 hPa WSW 4.7 km/h 8 km/h 82% 0.0 mm 206 W/m2
09:07 18.6 °C 15.3 °C 1009.1 hPa WNW 3.2 km/h 12.9 km/h 81% 0.0 mm 188 W/m2
09:12 18.6 °C 15.5 °C 1009.1 hPa WNW 1.4 km/h 4.8 km/h 82% 0.0 mm 250 W/m2
09:17 18.7 °C 15.6 °C 1009.1 hPa Calm   1.6 km/h 82% 0.0 mm 237 W/m2
09:22 18.7 °C 15.4 °C 1009.1 hPa NW 3.2 km/h 12.9 km/h 81% 0.0 mm 248 W/m2
09:27 18.7 °C 15.6 °C 1009.1 hPa NNW 6.4 km/h 6.4 km/h 82% 0.0 mm 301 W/m2
09:32 18.8 °C 15.5 °C 1009.1 hPa West 6.4 km/h 12.9 km/h 81% 0.0 mm 251 W/m2
09:37 18.8 °C 15.5 °C 1009.1 hPa NW 7.9 km/h 11.3 km/h 81% 0.0 mm 251 W/m2
09:42 18.8 °C 15.7 °C 1009.1 hPa NW 3.2 km/h 6.4 km/h 82% 0.0 mm 276 W/m2
09:47 18.8 °C 15.5 °C 1009.1 hPa WNW 6.4 km/h 12.9 km/h 81% 0.0 mm 278 W/m2
09:52 18.8 °C 15.5 °C 1009.1 hPa WNW 3.2 km/h 9.7 km/h 81% 0.0 mm 288 W/m2
09:57 18.9 °C 15.6 °C 1009.1 hPa NNW 1.4 km/h 12.9 km/h 81% 0.0 mm 262 W/m2
10:03 19.2 °C 15.9 °C 1009.1 hPa WNW 4.7 km/h 6.4 km/h 81% 0.0 mm 341 W/m2
10:08 19.3 °C 15.8 °C 1009.1 hPa NNW 1.4 km/h 12.9 km/h 80% 0.0 mm 325 W/m2
10:13 19.4 °C 15.9 °C 1009.1 hPa NNW 6.4 km/h 8 km/h 80% 0.0 mm 341 W/m2
10:18 19.3 °C 15.8 °C 1009.1 hPa NW 4.7 km/h 8 km/h 80% 0.0 mm 274 W/m2
10:23 19.3 °C 15.8 °C 1009.1 hPa WNW 3.2 km/h 3.2 km/h 80% 0.0 mm 255 W/m2
10:28 19.4 °C 15.9 °C 1009.1 hPa North 4.7 km/h 4.8 km/h 80% 0.0 mm 232 W/m2
10:33 19.5 °C 15.8 °C 1009.1 hPa NW 1.4 km/h 11.3 km/h 79% 0.0 mm 244 W/m2
10:38 19.3 °C 15.8 °C 1009.1 hPa West 6.4 km/h 6.4 km/h 80% 0.0 mm 285 W/m2
10:43 19.4 °C 15.9 °C 1009.1 hPa WSW 1.4 km/h 11.3 km/h 80% 0.0 mm 352 W/m2
10:49 19.5 °C 16 °C 1009.1 hPa Calm   4.8 km/h 80% 0.0 mm 367 W/m2
10:54 19.7 °C 16 °C 1009.1 hPa West 3.2 km/h 17.7 km/h 79% 0.0 mm 380 W/m2
10:59 19.7 °C 16 °C 1009.1 hPa West 11.1 km/h 14.5 km/h 79% 0.0 mm 339 W/m2
11:04 19.7 °C 16 °C 1009.1 hPa NW 7.9 km/h 17.7 km/h 79% 0.0 mm 334 W/m2
11:09 19.7 °C 16 °C 1009.1 hPa South 1.4 km/h 4.8 km/h 79% 0.0 mm 299 W/m2
11:14 19.6 °C 15.9 °C 1009.1 hPa ESE 1.4 km/h 12.9 km/h 79% 0.0 mm 230 W/m2
11:19 19.7 °C 16 °C 1009.1 hPa ENE 1.4 km/h 8 km/h 79% 0.0 mm 352 W/m2
11:24 19.8 °C 16.1 °C 1009.1 hPa SSW 1.4 km/h 8 km/h 79% 0.0 mm 325 W/m2
11:29 19.8 °C 15.9 °C 1009.5 hPa West 1.4 km/h 12.9 km/h 78% 0.0 mm 202 W/m2
11:39 19.8 °C 16.1 °C 1009.1 hPa Calm   12.9 km/h 79% 0.0 mm 262 W/m2
11:44 19.9 °C 16.1 °C 1009.1 hPa WNW 3.2 km/h 9.7 km/h 79% 0.0 mm 285 W/m2
11:49 20.2 °C 16.2 °C 1009.1 hPa Calm   3.2 km/h 78% 0.0 mm 483 W/m2
11:54 20.6 °C 16.4 °C 1009.1 hPa WNW 6.4 km/h 8 km/h 77% 0.0 mm 401 W/m2
11:59 20.7 °C 16.1 °C 1009.1 hPa WNW 4.7 km/h 11.3 km/h 75% 0.0 mm 446 W/m2
12:04 20.8 °C 16.2 °C 1009.1 hPa NNE 4.7 km/h 4.8 km/h 75% 0.0 mm 411 W/m2
12:09 21 °C 16.4 °C 1009.1 hPa WSW 1.4 km/h 12.9 km/h 75% 0.0 mm 417 W/m2
12:14 21 °C 16.4 °C 1009.1 hPa West 4.7 km/h 11.3 km/h 75% 0.0 mm 302 W/m2
12:19 21.1 °C 16.3 °C 1009.1 hPa ENE 3.2 km/h 6.4 km/h 74% 0.0 mm 288 W/m2
12:24 21.3 °C 16.5 °C 1009.1 hPa WNW 7.9 km/h 11.3 km/h 74% 0.0 mm 408 W/m2
12:29 21.3 °C 16.3 °C 1009.1 hPa WNW 11.1 km/h 16.1 km/h 73% 0.0 mm 408 W/m2
12:34 21.8 °C 16.5 °C 1008.8 hPa WNW 11.1 km/h 11.3 km/h 72% 0.0 mm 408 W/m2
12:39 22.1 °C 16.6 °C 1009.1 hPa WNW 11.1 km/h 11.3 km/h 71% 0.0 mm 408 W/m2
12:44 22.2 °C 16.5 °C 1008.8 hPa WNW 11.1 km/h   70% 0.0 mm 475 W/m2
12:49 22.4 °C 16.7 °C 1008.8 hPa Calm     70% 0.0 mm 882 W/m2
12:54 22.7 °C 16.7 °C 1008.8 hPa Calm     69% 0.0 mm 882 W/m2
12:59 23 °C 16.8 °C 1008.8 hPa Calm     68% 0.0 mm 1100 W/m2
13:04 23.2 °C 16.7 °C 1008.8 hPa Calm     67% 0.0 mm 1100 W/m2
13:09 23.1 °C 16.9 °C 1008.8 hPa Calm     68% 0.0 mm 531 W/m2
13:14 22.9 °C 16.9 °C 1008.8 hPa WNW 3.2 km/h 11.3 km/h 69% 0.0 mm 1158 W/m2
13:19 23.1 °C 16.9 °C 1008.8 hPa WSW 6.4 km/h 8 km/h 68% 0.0 mm 1137 W/m2
13:24 23.3 °C 17.1 °C 1008.8 hPa West 4.7 km/h 4.8 km/h 68% 0.0 mm 1035 W/m2
13:29 23.6 °C 16.9 °C 1008.8 hPa West 13 km/h 20.9 km/h 66% 0.0 mm 668 W/m2
13:34 23.1 °C 16.6 °C 1008.8 hPa WNW 11.1 km/h 11.3 km/h 67% 0.0 mm 668 W/m2
13:39 23.3 °C 16.8 °C 1008.8 hPa NNW 3.2 km/h 20.9 km/h 67% 0.0 mm 991 W/m2
13:44 23.4 °C 16.7 °C 1008.8 hPa West 14.3 km/h 16.1 km/h 66% 0.0 mm 1014 W/m2
13:49 23.6 °C 17.3 °C 1008.8 hPa WNW 6.4 km/h 20.9 km/h 68% 0.0 mm 308 W/m2
13:54 23.7 °C 17 °C 1008.8 hPa North 9.7 km/h 12.9 km/h 66% 0.0 mm 1188 W/m2
13:59 23.8 °C 17.1 °C 1008.5 hPa NW 4.7 km/h 17.7 km/h 66% 0.0 mm 1171 W/m2
14:04 23.7 °C 17 °C 1008.8 hPa WSW 9.7 km/h 24.1 km/h 66% 0.0 mm 490 W/m2
14:09 23.4 °C 16.9 °C 1008.8 hPa WNW 3.2 km/h 12.9 km/h 67% 0.0 mm 380 W/m2
14:14 23.2 °C 16.7 °C 1008.8 hPa North 7.9 km/h 11.3 km/h 67% 0.0 mm 406 W/m2
14:19 22.9 °C 16.7 °C 1008.8 hPa NE 1.4 km/h 12.9 km/h 68% 0.0 mm 487 W/m2
14:24 22.9 °C 16.9 °C 1008.8 hPa NW 1.4 km/h 3.2 km/h 69% 0.0 mm 404 W/m2
14:29 23.3 °C 16.8 °C 1008.8 hPa WNW 4.7 km/h 14.5 km/h 67% 0.0 mm 417 W/m2
14:34 23.3 °C 16.8 °C 1008.8 hPa NW 4.7 km/h 17.7 km/h 67% 0.0 mm 336 W/m2
14:39 23.2 °C 17 °C 1008.8 hPa West 6.4 km/h 9.7 km/h 68% 0.0 mm 308 W/m2
14:44 23.2 °C 16.7 °C 1008.8 hPa NNW 3.2 km/h 17.7 km/h 67% 0.0 mm 468 W/m2
14:49 23.1 °C 17.1 °C 1008.8 hPa NE 3.2 km/h 16.1 km/h 69% 0.0 mm 394 W/m2
14:54 23.2 °C 17 °C 1008.5 hPa NW 4.7 km/h 6.4 km/h 68% 0.0 mm 359 W/m2
14:59 23.3 °C 17.1 °C 1008.5 hPa West 3.2 km/h 11.3 km/h 68% 0.0 mm 459 W/m2
15:04 23.6 °C 17.3 °C 1008.5 hPa West 14.3 km/h 14.5 km/h 68% 0.0 mm 487 W/m2
15:09 23.7 °C 17 °C 1008.8 hPa NW 6.4 km/h 9.7 km/h 66% 0.0 mm 346 W/m2
15:14 23.6 °C 17.1 °C 1008.5 hPa WNW 6.4 km/h 14.5 km/h 67% 0.0 mm 969 W/m2
15:19 23.6 °C 17.1 °C 1008.5 hPa SW 1.4 km/h 6.4 km/h 67% 0.0 mm 378 W/m2
15:25 23.6 °C 17.1 °C 1008.8 hPa WSW 14.3 km/h 17.7 km/h 67% 0.0 mm 383 W/m2
15:30 23.4 °C 17.2 °C 1008.5 hPa WNW 3.2 km/h 12.9 km/h 68% 0.0 mm 376 W/m2
15:35 23.5 °C 17 °C 1008.5 hPa NW 3.2 km/h 16.1 km/h 67% 0.0 mm 373 W/m2
15:40 23.6 °C 17.3 °C 1008.5 hPa NNW 1.4 km/h 3.2 km/h 68% 0.0 mm 295 W/m2
15:45 23.7 °C 17.2 °C 1008.5 hPa SW 1.4 km/h 14.5 km/h 67% 0.0 mm 301 W/m2
15:55 23.6 °C 17.3 °C 1008.5 hPa West 4.7 km/h 11.3 km/h 68% 0.0 mm 271 W/m2
16:00 23.7 °C 17.2 °C 1008.8 hPa NW 4.7 km/h 14.5 km/h 67% 0.0 mm 199 W/m2
16:05 23.6 °C 17.1 °C 1008.8 hPa WNW 6.4 km/h 6.4 km/h 67% 0.0 mm 193 W/m2
16:10 23.5 °C 17.3 °C 1008.5 hPa NW 4.7 km/h 11.3 km/h 68% 0.0 mm 450 W/m2
16:15 23.7 °C 17.2 °C 1008.8 hPa NNW 13 km/h 17.7 km/h 67% 0.0 mm 450 W/m2
16:20 23.5 °C 17 °C 1008.5 hPa SSW 3.2 km/h 9.7 km/h 67% 0.0 mm 234 W/m2
16:25 23.6 °C 17.6 °C 1008.5 hPa WSW 4.7 km/h 14.5 km/h 69% 0.0 mm 206 W/m2
16:30 23.8 °C 17.3 °C 1008.5 hPa NNW 4.7 km/h 6.4 km/h 67% 0.0 mm 360 W/m2
16:35 24.1 °C 17.6 °C 1008.5 hPa WNW 6.4 km/h 12.9 km/h 67% 0.0 mm 302 W/m2
16:40 24.2 °C 17.4 °C 1008.5 hPa WNW 6.4 km/h 16.1 km/h 66% 0.0 mm 907 W/m2
16:45 24.4 °C 17.9 °C 1008.5 hPa WSW 1.4 km/h 6.4 km/h 67% 0.0 mm 837 W/m2
16:50 24.6 °C 17.8 °C 1008.5 hPa SW 6.4 km/h 6.4 km/h 66% 0.0 mm 770 W/m2
16:55 24.6 °C 17.6 °C 1008.5 hPa WNW 3.2 km/h 6.4 km/h 65% 0.0 mm 747 W/m2
17:00 24.3 °C 17.3 °C 1008.5 hPa SW 6.4 km/h 9.7 km/h 65% 0.0 mm 188 W/m2
17:05 24.2 °C 17.4 °C 1008.5 hPa West 9.7 km/h 12.9 km/h 66% 0.0 mm 188 W/m2
17:11 24.2 °C 17.2 °C 1008.1 hPa West 9.7 km/h 19.3 km/h 65% 0.0 mm 719 W/m2
17:16 24.4 °C 17.6 °C 1008.1 hPa West 9.7 km/h 11.3 km/h 66% 0.0 mm 649 W/m2
17:21 24.6 °C 17.6 °C 1008.1 hPa WSW 4.7 km/h 16.1 km/h 65% 0.0 mm 664 W/m2
17:26 24.7 °C 17.4 °C 1008.1 hPa WSW 13 km/h 16.1 km/h 64% 0.0 mm 135 W/m2
17:31 24.4 °C 17.4 °C 1008.1 hPa WNW 6.4 km/h 9.7 km/h 65% 0.0 mm 160 W/m2
17:36 24.2 °C 17.2 °C 1008.1 hPa WNW 6.4 km/h 8 km/h 65% 0.0 mm 176 W/m2
17:41 24 °C 17.3 °C 1008.1 hPa SW 6.4 km/h 12.9 km/h 66% 0.0 mm 178 W/m2
17:46 23.8 °C 17.1 °C 1008.1 hPa SW 4.7 km/h 6.4 km/h 66% 0.0 mm 148 W/m2
17:51 23.8 °C 17.3 °C 1008.1 hPa WNW 4.7 km/h 9.7 km/h 67% 0.0 mm 178 W/m2
17:56 23.8 °C 17.3 °C 1008.1 hPa NW 3.2 km/h 4.8 km/h 67% 0.0 mm 200 W/m2
18:01 23.9 °C 17.4 °C 1007.8 hPa WNW 3.2 km/h 4.8 km/h 67% 0.0 mm 155 W/m2
18:06 23.9 °C 17.4 °C 1008.1 hPa Calm   12.9 km/h 67% 0.0 mm 95 W/m2
18:11 23.8 °C 17.1 °C 1008.1 hPa West 4.7 km/h 12.9 km/h 66% 0.0 mm 118 W/m2
18:16 23.7 °C 17.2 °C 1007.8 hPa West 1.4 km/h 12.9 km/h 67% 0.0 mm 104 W/m2
18:21 23.6 °C 17.1 °C 1007.8 hPa WSW 3.2 km/h 9.7 km/h 67% 0.0 mm 137 W/m2
18:26 23.6 °C 17.1 °C 1007.8 hPa WNW 3.2 km/h 11.3 km/h 67% 0.0 mm 137 W/m2
18:31 23.6 °C 17.1 °C 1007.8 hPa West 6.4 km/h 9.7 km/h 67% 0.0 mm 128 W/m2
18:36 23.6 °C 17.1 °C 1007.8 hPa WNW 3.2 km/h 6.4 km/h 67% 0.0 mm 104 W/m2
18:41 23.6 °C 17.1 °C 1007.8 hPa West 9.7 km/h 11.3 km/h 67% 0.0 mm 109 W/m2
18:46 23.6 °C 17.1 °C 1007.8 hPa West 4.7 km/h 6.4 km/h 67% 0.0 mm 107 W/m2
18:51 23.6 °C 17.1 °C 1007.8 hPa WSW 3.2 km/h 6.4 km/h 67% 0.0 mm 95 W/m2
18:56 23.6 °C 16.9 °C 1007.8 hPa WNW 4.7 km/h 6.4 km/h 66% 0.0 mm 179 W/m2
19:01 23.6 °C 16.9 °C 1007.8 hPa West 6.4 km/h 14.5 km/h 66% 0.0 mm 162 W/m2
19:06 23.6 °C 16.6 °C 1007.8 hPa WSW 4.7 km/h 12.9 km/h 65% 0.0 mm 153 W/m2
19:11 23.6 °C 16.6 °C 1007.8 hPa WSW 1.4 km/h 6.4 km/h 65% 0.0 mm 114 W/m2
19:16 23.6 °C 16.6 °C 1007.8 hPa NW 3.2 km/h 11.3 km/h 65% 0.0 mm 100 W/m2
19:21 23.6 °C 16.9 °C 1007.8 hPa NW 6.4 km/h 6.4 km/h 66% 0.0 mm 123 W/m2
19:26 23.6 °C 16.6 °C 1007.8 hPa Calm   11.3 km/h 65% 0.0 mm 137 W/m2
19:31 23.6 °C 16.9 °C 1007.8 hPa SW 1.4 km/h 3.2 km/h 66% 0.0 mm 90 W/m2
19:36 23.6 °C 16.9 °C 1007.8 hPa WNW 3.2 km/h 11.3 km/h 66% 0.0 mm 77 W/m2
19:41 23.5 °C 16.8 °C 1007.8 hPa West 3.2 km/h 3.2 km/h 66% 0.0 mm 86 W/m2
19:46 23.5 °C 16.8 °C 1007.8 hPa West 6.4 km/h 12.9 km/h 66% 0.0 mm 63 W/m2
19:51 23.4 °C 16.4 °C 1007.8 hPa WNW 1.4 km/h 6.4 km/h 65% 0.0 mm 62 W/m2
19:56 23.4 °C 16.4 °C 1008.1 hPa NW 1.4 km/h 12.9 km/h 65% 0.0 mm 53 W/m2
20:01 23.4 °C 16.4 °C 1007.8 hPa North 1.4 km/h 3.2 km/h 65% 0.0 mm 67 W/m2
20:06 23.4 °C 16.7 °C 1007.8 hPa NW 1.4 km/h 4.8 km/h 66% 0.0 mm 67 W/m2
20:11 23.4 °C 16.7 °C 1007.8 hPa West 1.4 km/h 3.2 km/h 66% 0.0 mm 49 W/m2
20:16 23.3 °C 16.6 °C 1007.8 hPa West 3.2 km/h 3.2 km/h 66% 0.0 mm 35 W/m2
20:21 23.3 °C 16.6 °C 1007.8 hPa West 3.2 km/h 9.7 km/h 66% 0.0 mm 32 W/m2
20:26 23.2 °C 16.5 °C 1007.8 hPa WNW 7.9 km/h 8 km/h 66% 0.0 mm 39 W/m2
20:31 23.1 °C 16.2 °C 1007.8 hPa NW 4.7 km/h 6.4 km/h 65% 0.0 mm 19 W/m2
20:36 23.1 °C 16.2 °C 1007.8 hPa WNW 4.7 km/h 6.4 km/h 65% 0.0 mm 11 W/m2
20:41 23 °C 16.1 °C 1007.8 hPa NW 4.7 km/h 11.3 km/h 65% 0.0 mm 9 W/m2
20:46 22.9 °C 16.2 °C 1007.8 hPa SW 1.4 km/h 6.4 km/h 66% 0.0 mm 9 W/m2
20:51 22.9 °C 16.2 °C 1007.8 hPa SSW 4.7 km/h 12.9 km/h 66% 0.0 mm 12 W/m2
20:56 22.8 °C 16.1 °C 1008.1 hPa NNW 3.2 km/h 6.4 km/h 66% 0.0 mm 11 W/m2
21:01 22.8 °C 16.1 °C 1008.1 hPa West 3.2 km/h 12.9 km/h 66% 0.0 mm 18 W/m2
21:06 22.7 °C 16 °C 1008.1 hPa NW 1.4 km/h 3.2 km/h 66% 0.0 mm 14 W/m2
21:11 22.7 °C 16 °C 1008.1 hPa WNW 6.4 km/h 9.7 km/h 66% 0.0 mm 11 W/m2
21:16 22.6 °C 16.2 °C 1008.1 hPa WNW 3.2 km/h 6.4 km/h 67% 0.0 mm 12 W/m2
21:26 22.5 °C 16.1 °C 1008.1 hPa NW 1.4 km/h 3.2 km/h 67% 0.0 mm 12 W/m2
21:31 22.4 °C 16.2 °C 1008.1 hPa NW 1.4 km/h 9.7 km/h 68% 0.0 mm 9 W/m2
21:36 22.3 °C 16.1 °C 1008.1 hPa NNE 4.7 km/h 4.8 km/h 68% 0.0 mm 5 W/m2
21:41 22.3 °C 16.1 °C 1008.1 hPa NW 4.7 km/h 9.7 km/h 68% 0.0 mm 0 W/m2
21:46 22.2 °C 16 °C 1008.1 hPa WNW 6.4 km/h 8 km/h 68% 0.0 mm 0 W/m2
21:51 22.2 °C 16 °C 1008.1 hPa NW 3.2 km/h 4.8 km/h 68% 0.0 mm 0 W/m2
21:56 22.1 °C 15.9 °C 1008.1 hPa WNW 1.4 km/h 12.9 km/h 68% 0.0 mm 0 W/m2
22:01 22 °C 16 °C 1008.5 hPa West 1.4 km/h 4.8 km/h 69% 0.0 mm 0 W/m2
22:06 21.9 °C 16 °C 1008.5 hPa WNW 3.2 km/h 4.8 km/h 69% 0.0 mm 0 W/m2
22:11 21.9 °C 16.2 °C 1008.5 hPa West 3.2 km/h 3.2 km/h 70% 0.0 mm 0 W/m2
22:16 21.8 °C 16.1 °C 1008.8 hPa West 1.4 km/h 4.8 km/h 70% 0.0 mm 0 W/m2
22:21 21.7 °C 16 °C 1008.8 hPa WNW 6.4 km/h 6.4 km/h 70% 0.0 mm 0 W/m2
22:26 21.6 °C 15.9 °C 1008.8 hPa SW 6.4 km/h 9.7 km/h 70% 0.0 mm 0 W/m2
22:31 21.6 °C 15.9 °C 1009.1 hPa WNW 4.7 km/h 9.7 km/h 70% 0.0 mm 0 W/m2
22:36 21.5 °C 16 °C 1009.1 hPa WSW 11.1 km/h 12.9 km/h 71% 0.0 mm 0 W/m2
22:41 21.4 °C 15.9 °C 1009.1 hPa West 3.2 km/h 12.9 km/h 71% 0.0 mm 0 W/m2
22:46 21.4 °C 16.1 °C 1009.1 hPa WSW 6.4 km/h 12.9 km/h 72% 0.0 mm 0 W/m2
22:51 21.3 °C 16.3 °C 1009.1 hPa WNW 7.9 km/h 14.5 km/h 73% 0.0 mm 0 W/m2
22:57 21.2 °C 16.6 °C 1009.5 hPa West 4.7 km/h 8 km/h 75% 0.0 mm 0 W/m2
23:02 20.9 °C 16.5 °C 1009.5 hPa WNW 6.4 km/h 17.7 km/h 76% 0.0 mm 0 W/m2
23:07 20.7 °C 16.7 °C 1009.5 hPa NW 4.7 km/h 14.5 km/h 78% 0.0 mm 0 W/m2
23:12 20.5 °C 16.7 °C 1009.8 hPa WSW 7.9 km/h 11.3 km/h 79% 0.0 mm 0 W/m2
23:17 20.4 °C 16.8 °C 1009.5 hPa West 4.7 km/h 11.3 km/h 80% 0.0 mm 0 W/m2
23:22 20.2 °C 16.6 °C 1009.5 hPa West 9.7 km/h 14.5 km/h 80% 0.0 mm 0 W/m2
23:27 20.1 °C 16.7 °C 1009.8 hPa WNW 4.7 km/h 9.7 km/h 81% 0.0 mm 0 W/m2
23:32 20 °C 16.8 °C 1009.8 hPa WSW 11.1 km/h 12.9 km/h 82% 0.0 mm 0 W/m2
23:37 19.9 °C 16.7 °C 1009.8 hPa WNW 6.4 km/h 6.4 km/h 82% 0.0 mm 0 W/m2
23:42 19.9 °C 16.7 °C 1009.8 hPa WNW 7.9 km/h 11.3 km/h 82% 0.0 mm 0 W/m2
23:47 19.8 °C 16.6 °C 1009.8 hPa NW 11.1 km/h 14.5 km/h 82% 0.0 mm 0 W/m2
23:52 19.8 °C 16.6 °C 1009.8 hPa WNW 1.4 km/h 3.2 km/h 82% 0.0 mm 0 W/m2
23:57 19.8 °C 16.8 °C 1009.8 hPa West 1.4 km/h 14.5 km/h 83% 0.0 mm 0 W/m2
Juneau County Weather
Compliments of Weather Underground - 4 mb